Latest Weather Observations for Emerald

IDQ60801

Issued at 12:08 pm EST Tuesday 26 July 2016 (issued every 30 minutes, with the page automatically refreshed every 10 minutes)

About weather observations | Map of weather stations | Latest weather observations for QLD | Other Formats
Station Details ID: 035264 Name: EMERALD AIRPORT Lat: -23.57 Lon: 148.18 Height: 189.4 m
Data from the previous 72 hours. | See also: Recent months at Emerald
Date/Time
EST
Temp
°C
App
Temp
°C
Dew
Point
°C
Rel
Hum
%
Delta-T
°C
Wind Press
QNH
hPa
Press
MSL
hPa
Rain since
9am
mm
Dir  Spd
km/h
Gust
km/h
Spd
kts
Gust
kts
26/12:00pm 20.2 16.9 6.5 41 6.9 SE 13 20 7 11 1019.6 1019.4 0.0
26/11:30am 19.6 16.1 7.4 45 6.3 ESE 15 24 8 13 1019.9 - 0.0
26/11:00am 18.6 14.3 7.1 47 5.8 SSE 19 24 10 13 1020.5 - 0.0
26/10:30am 17.6 13.4 7.4 51 5.2 S 19 22 10 12 1020.9 - 0.0
26/10:00am 16.8 12.3 6.0 49 5.3 ESE 19 22 10 12 1020.8 - 0.0
26/09:30am 15.9 11.2 6.1 52 4.8 SE 20 28 11 15 1020.6 - 0.0
26/09:00am 14.7 10.2 6.0 56 4.2 SSE 19 24 10 13 1020.8 1020.7 0.0
26/08:30am 13.8 9.3 5.9 59 3.8 SSE 19 26 10 14 1020.7 - 0.0
26/08:00am 13.3 8.7 6.4 63 3.3 SSE 20 28 11 15 1020.3 - 0.0
26/07:30am 12.7 7.6 6.1 64 3.2 SSE 22 32 12 17 1020.1 - 0.0
26/07:00am 12.4 8.0 6.7 68 2.8 S 19 22 10 12 1019.9 - 0.0
26/06:30am 12.4 8.8 6.9 69 2.7 S 15 17 8 9 1019.5 - 0.0
26/06:00am 12.5 9.4 7.2 70 2.6 S 13 19 7 10 1019.1 1019.0 0.0
26/05:30am 12.4 9.6 7.1 70 2.6 SSE 11 15 6 8 1018.7 - 0.0
26/05:00am 12.5 9.4 7.2 70 2.6 SSE 13 17 7 9 1018.6 - 0.0
26/04:30am 12.5 8.6 7.2 70 2.6 S 17 20 9 11 1018.4 - 0.0
26/04:00am 12.8 9.4 7.5 70 2.6 SSE 15 19 8 10 1018.1 - 0.0
26/03:30am 12.7 8.6 7.8 72 2.4 S 19 20 10 11 1018.3 - 0.0
26/03:00am 11.7 8.3 7.6 76 2.0 S 15 19 8 10 1018.3 1018.2 0.0
26/02:30am 11.4 9.4 7.3 76 2.0 S 7 11 4 6 1018.4 - 0.0
26/02:00am 11.8 9.5 7.3 74 2.2 S 9 13 5 7 1018.5 - 0.0
26/01:30am 12.5 10.6 7.6 72 2.4 S 7 9 4 5 1018.6 - 0.0
26/01:00am 12.5 11.9 7.6 72 2.4 CALM 0 0 0 0 1018.9 - 0.0
26/12:30am 13.0 12.4 7.2 68 2.8 CALM 0 0 0 0 1019.3 - 0.0
26/12:00am 13.7 13.0 6.8 63 3.4 CALM 0 0 0 0 1019.0 1018.9 0.0
 
Date/Time
EST
Temp
°C
App
Temp
°C
Dew
Point
°C
Rel
Hum
%
Delta-T
°C
Wind Press
QNH
hPa
Press
MSL
hPa
Rain since
9am
mm
Dir  Spd
km/h
Gust
km/h
Spd
kts
Gust
kts
25/11:30pm 13.4 11.4 7.2 66 3.0 ESE 7 13 4 7 1019.0 - 0.0
25/11:00pm 14.1 11.5 7.6 65 3.2 S 11 13 6 7 1019.1 - 0.0
25/10:30pm 14.4 11.4 7.5 63 3.4 S 13 15 7 8 1019.0 - 0.0
25/10:00pm 14.9 12.2 7.5 61 3.7 S 11 13 6 7 1018.8 - 0.0
25/09:30pm 15.4 12.7 7.4 59 4.0 S 11 13 6 7 1018.9 - 0.0
25/09:00pm 15.3 13.4 9.0 66 3.2 S 9 11 5 6 1018.9 1018.8 0.0
25/08:30pm 16.0 14.6 9.0 63 3.6 S 6 7 3 4 1019.0 - 0.0
25/08:00pm 15.6 13.9 8.4 62 3.7 SSE 7 9 4 5 1018.8 - 0.0
25/07:30pm 16.4 16.1 8.6 60 4.0 CALM 0 0 0 0 1018.6 - 0.0
25/07:00pm 17.2 15.6 8.9 58 4.3 ESE 7 9 4 5 1018.3 - 0.0
25/06:30pm 17.8 16.3 8.4 54 4.9 ESE 6 9 3 5 1018.0 - 0.0
25/06:00pm 19.3 17.4 7.4 46 6.1 SE 7 9 4 5 1017.8 1017.7 0.0
25/05:30pm 20.4 18.5 6.7 41 7.0 ESE 6 7 3 4 1017.4 - 0.0
25/05:00pm 21.6 19.5 6.7 38 7.7 NE 7 11 4 6 1017.1 - 0.0
25/04:30pm 21.9 19.1 5.3 34 8.3 SE 9 13 5 7 1017.0 - 0.0
25/04:00pm 21.9 19.1 5.3 34 8.3 SE 9 17 5 9 1017.1 - 0.0
25/03:30pm 22.2 18.9 4.7 32 8.7 SSW 11 15 6 8 1017.0 - 0.0
25/03:00pm 22.0 19.3 5.8 35 8.2 S 9 15 5 8 1017.1 1017.0 0.0
25/02:30pm 22.0 18.5 5.4 34 8.3 S 13 19 7 10 1017.1 - 0.0
25/02:00pm 21.4 17.4 4.9 34 8.2 S 15 20 8 11 1017.3 - 0.0
25/01:30pm 21.5 16.8 5.0 34 8.2 SSE 19 24 10 13 1017.6 - 0.0
25/01:00pm 21.4 16.7 5.3 35 8.0 SSW 19 24 10 13 1018.1 - 0.0
25/12:30pm 20.9 16.3 5.7 37 7.6 SSE 19 30 10 16 1018.7 - 0.0
25/12:00pm 20.5 16.4 6.1 39 7.2 SSE 17 24 9 13 1019.5 1019.3 0.0
25/11:30am 19.3 14.5 5.7 41 6.8 SSE 20 28 11 15 1019.9 - 0.0
25/11:00am 19.4 14.5 6.8 44 6.4 SSE 22 32 12 17 1020.2 - 0.0
25/10:30am 18.6 14.0 6.4 45 6.1 SSE 20 26 11 14 1020.5 - 0.0
25/10:00am 18.0 12.2 6.2 46 5.9 SSE 26 33 14 18 1020.7 - 0.0
25/09:30am 17.5 11.1 5.4 45 5.9 SE 28 33 15 18 1020.9 - 0.0
25/09:00am 17.1 12.1 6.6 50 5.2 SSE 22 33 12 18 1020.7 1020.6 0.0
25/08:30am 16.2 12.4 7.7 57 4.3 SSE 17 20 9 11 1020.6 - 0.0
25/08:00am 15.4 11.6 7.4 59 4.0 S 17 22 9 12 1020.4 - 0.0
25/07:30am 14.5 11.6 8.0 65 3.3 SSW 13 17 7 9 1020.0 - 0.0
25/07:00am 13.5 10.5 7.5 67 3.0 SSW 13 17 7 9 1019.7 - 0.0
25/06:30am 14.1 11.0 7.4 64 3.3 SSW 13 19 7 10 1019.3 - 0.0
25/06:00am 14.9 11.1 7.5 61 3.7 SW 17 24 9 13 1018.8 1018.7 0.0
25/05:30am 14.7 11.7 7.7 63 3.5 SW 13 19 7 10 1018.0 - 0.0
25/05:00am 15.0 10.9 7.8 62 3.6 WSW 19 20 10 11 1017.6 - 0.0
25/04:30am 15.3 12.0 8.1 62 3.7 WSW 15 17 8 9 1017.3 - 0.0
25/04:00am 15.9 13.3 7.9 59 4.1 WSW 11 15 6 8 1017.1 - 0.0
25/03:30am 16.5 13.2 8.0 57 4.3 SW 15 19 8 10 1017.2 - 0.0
25/03:00am 17.1 13.4 8.0 55 4.7 WSW 17 22 9 12 1017.2 1017.1 0.0
25/02:30am 17.2 14.2 9.4 60 4.1 SW 15 19 8 10 1017.1 - 0.0
25/02:00am 16.9 15.4 10.5 66 3.4 SW 9 11 5 6 1017.1 - 0.0
25/01:30am 17.0 15.5 10.6 66 3.4 SW 9 13 5 7 1017.1 - 0.0
25/01:00am 18.1 15.8 10.5 61 4.1 SW 13 19 7 10 1017.0 - 0.0
25/12:30am 18.3 15.7 10.7 61 4.1 WSW 15 17 8 9 1016.9 - 0.0
25/12:00am 19.2 15.8 10.7 58 4.6 WSW 19 22 10 12 1016.8 1016.7 0.0
 
Date/Time
EST
Temp
°C
App
Temp
°C
Dew
Point
°C
Rel
Hum
%
Delta-T
°C
Wind Press
QNH
hPa
Press
MSL
hPa
Rain since
9am
mm
Dir  Spd
km/h
Gust
km/h
Spd
kts
Gust
kts
24/11:30pm 18.7 16.3 11.5 63 4.0 WSW 15 19 8 10 1016.7 - 0.0
24/11:00pm 19.1 17.5 11.7 62 4.1 WSW 11 13 6 7 1016.8 - 0.0
24/10:30pm 19.5 17.5 11.5 60 4.4 WSW 13 15 7 8 1016.7 - 0.0
24/10:00pm 20.0 17.9 11.2 57 4.9 WSW 13 15 7 8 1016.7 - 0.0
24/09:30pm 20.9 18.6 11.8 56 5.1 WSW 15 19 8 10 1016.6 - 0.0
24/09:00pm 21.1 19.0 12.3 57 5.0 WSW 15 17 8 9 1016.4 1016.3 0.0
24/08:30pm 21.6 19.9 13.5 60 4.7 WSW 15 17 8 9 1016.2 - 0.0
24/08:00pm 20.7 21.6 16.1 75 2.8 WSW 6 9 3 5 1015.9 - 0.0
24/07:30pm 20.7 21.5 16.3 76 2.7 SW 7 9 4 5 1015.4 - 0.0
24/07:00pm 21.6 23.3 16.3 72 3.2 S 2 7 1 4 1015.1 - 0.0
24/06:30pm 22.9 23.6 15.5 63 4.5 ENE 6 7 3 4 1014.6 - 0.0
24/06:00pm 23.6 24.3 15.6 61 4.9 ENE 6 7 3 4 1014.3 1014.1 0.0
24/05:30pm 26.1 27.7 14.9 50 6.8 CALM 0 0 0 0 1014.1 - 0.0
24/05:00pm 27.8 28.2 13.7 42 8.4 NW 4 7 2 4 1013.8 - 0.0
24/04:30pm 27.7 27.0 13.3 41 8.6 NW 9 13 5 7 1013.6 - 0.0
24/04:00pm 27.7 26.7 13.3 41 8.6 WNW 11 17 6 9 1013.4 - 0.0
24/03:30pm 27.5 26.4 13.1 41 8.5 NW 11 19 6 10 1013.4 - 0.0
24/03:00pm 27.2 25.2 12.8 41 8.5 NNW 15 20 8 11 1013.6 1013.5 0.0
24/02:30pm 26.8 25.8 13.5 44 7.9 NNW 11 17 6 9 1014.2 - 0.0
24/02:00pm 26.2 25.4 13.0 44 7.8 NNW 9 19 5 10 1014.6 - 0.0
24/01:30pm 25.8 26.0 13.0 45 7.5 NNE 4 13 2 7 1015.1 - 0.0
24/01:00pm 25.5 25.3 13.7 48 7.0 N 7 15 4 8 1015.5 - 0.0
24/12:30pm 24.5 23.8 13.1 49 6.7 N 9 15 5 8 1016.2 - 0.0
24/12:00pm 24.1 24.0 13.3 51 6.3 NNW 6 11 3 6 1016.6 1016.5 0.0
24/11:30am 23.7 24.3 13.0 51 6.2 W 2 7 1 4 1017.1 - 0.0
24/11:00am 22.3 21.8 12.8 55 5.5 SW 7 11 4 6 1017.4 - 0.0
24/10:30am 21.1 19.6 12.0 56 5.1 S 11 15 6 8 1017.8 - 0.0
24/10:00am 20.0 18.4 11.5 58 4.7 S 11 17 6 9 1018.0 - 0.0
24/09:30am 19.0 16.9 11.1 60 4.3 SE 13 17 7 9 1017.9 - 0.0
24/09:00am 18.1 15.7 11.4 65 3.7 SSE 15 20 8 11 1017.9 1017.8 0.0
24/08:30am 17.2 15.3 11.7 70 3.0 SSE 13 20 7 11 1017.5 - 0.0
24/08:00am 16.1 13.5 11.9 76 2.3 S 17 22 9 12 1017.3 - 0.0
24/07:30am 15.0 12.8 12.1 83 1.6 S 15 20 8 11 1016.9 - 0.0
24/07:00am 14.6 13.3 12.5 87 1.2 S 11 17 6 9 1016.7 - 0.0
24/06:30am 15.1 14.7 13.1 88 1.1 S 7 11 4 6 1016.5 - 0.0
24/06:00am 15.8 15.3 13.8 88 1.1 SSE 9 15 5 8 1015.9 1015.7 0.0
24/05:30am 15.5 15.1 14.0 91 0.9 S 9 11 5 6 1015.8 - 0.0
24/05:00am 15.5 14.8 14.2 92 0.7 SSW 11 13 6 7 1015.2 - 0.0
24/04:30am 15.9 15.2 14.3 90 0.9 SSW 11 15 6 8 1014.8 - 0.0
24/04:00am 16.2 15.5 14.4 89 1.0 WSW 11 13 6 7 1014.5 - 0.0
24/03:30am 16.3 16.0 14.5 89 1.0 WSW 9 9 5 5 1014.4 - 0.0
24/03:00am 17.2 18.8 14.8 86 1.4 CALM 0 0 0 0 1014.2 1014.0 0.0
24/02:30am 16.6 16.9 15.0 90 0.9 SW 7 9 4 5 1014.2 - 0.0
24/02:00am 16.2 16.5 14.6 90 0.9 SE 6 7 3 4 1014.2 - 0.0
24/01:30am 16.7 17.2 14.9 89 1.0 S 6 6 3 3 1014.3 - 0.0
24/01:00am 17.0 16.8 14.8 87 1.3 E 9 11 5 6 1014.4 - 0.0
24/12:30am 17.9 17.3 14.6 81 1.9 E 11 15 6 8 1014.2 - 0.0
24/12:00am 19.9 18.4 14.3 70 3.3 W 15 17 8 9 1014.2 1014.0 0.0
 
Date/Time
EST
Temp
°C
App
Temp
°C
Dew
Point
°C
Rel
Hum
%
Delta-T
°C
Wind Press
QNH
hPa
Press
MSL
hPa
Rain since
9am
mm
Dir  Spd
km/h
Gust
km/h
Spd
kts
Gust
kts
23/11:30pm 20.1 18.8 14.7 71 3.2 WSW 15 17 8 9 1014.3 - 0.0
23/11:00pm 20.8 19.6 15.1 70 3.4 WSW 15 20 8 11 1014.3 - 0.0
23/10:30pm 21.0 20.5 15.8 72 3.1 W 13 15 7 8 1014.3 - 0.0
23/10:00pm 21.3 20.9 16.3 73 3.0 WSW 13 15 7 8 1014.4 - 0.0
23/09:30pm 21.6 21.9 17.0 75 2.8 WSW 11 13 6 7 1014.3 - 0.0
23/09:00pm 22.2 22.9 17.1 73 3.2 WSW 9 11 5 6 1014.2 1014.0 0.0
23/08:30pm 22.5 23.1 16.8 70 3.5 WSW 9 11 5 6 1013.9 - 0.0
23/08:00pm 22.9 22.8 16.9 69 3.7 SW 13 15 7 8 1013.9 - 0.0
23/07:30pm 22.6 25.1 17.3 72 3.3 CALM 0 0 0 0 1013.3 - 0.0
23/07:00pm 23.8 25.3 16.6 64 4.4 W 4 7 2 4 1013.0 - 0.0
23/06:30pm 24.6 26.7 16.3 60 5.1 CALM 0 6 0 3 1012.9 - 0.0
23/06:00pm 26.5 27.0 15.5 50 6.7 WSW 7 9 4 5 1012.6 1012.5 0.0
23/05:30pm 27.9 27.8 14.9 45 7.9 W 9 11 5 6 1012.4 - 0.0
23/05:00pm 29.0 28.7 14.4 41 8.9 WNW 9 13 5 7 1012.1 - 0.0
23/04:30pm 29.5 28.6 13.7 38 9.5 W 11 15 6 8 1012.0 - 0.0
23/04:00pm 29.4 27.4 14.0 39 9.3 WSW 17 24 9 13 1012.0 - 0.0
23/03:30pm 29.9 28.5 14.4 38 9.5 W 15 24 8 13 1012.1 - 0.0
23/03:00pm 29.7 28.6 15.4 42 8.9 WNW 15 22 8 12 1012.2 1012.1 0.0
23/02:30pm 29.1 29.2 15.6 44 8.4 WSW 9 17 5 9 1012.5 - 0.0
23/02:00pm 28.6 27.8 16.2 47 7.7 SW 15 20 8 11 1012.8 - 0.0
23/01:30pm 28.6 28.8 16.8 48 7.4 WSW 11 19 6 10 1013.0 - 0.0
23/01:00pm 27.9 26.7 16.2 49 7.3 SSW 17 24 9 13 1013.4 - 0.0
23/12:30pm 27.2 26.7 16.8 53 6.5 W 15 20 8 11 1014.0 - 0.0

Other Formats:

Comma delimited format used in spreadsheet applications
http://www.bom.gov.au/fwo/IDQ60801/IDQ60801.94363.axf

JavaScript Object Notation format (JSON) in row-major order
http://www.bom.gov.au/fwo/IDQ60801/IDQ60801.94363.json